createdAt,value
2022-11-08T00:00:31.230Z,100603.06
2022-11-08T00:05:52.726Z,100607.69
2022-11-08T00:11:12.951Z,100613.00
2022-11-08T00:16:15.669Z,100616.56
2022-11-08T00:21:19.795Z,100622.09
2022-11-08T00:26:22.662Z,100621.84
2022-11-08T00:31:25.425Z,100622.72
2022-11-08T00:36:29.542Z,100624.41
2022-11-08T00:41:32.331Z,100618.94
2022-11-08T00:46:35.456Z,100627.94
2022-11-08T00:51:39.783Z,100615.22
2022-11-08T00:56:43.414Z,100615.75
2022-11-08T01:01:47.294Z,100614.00
2022-11-08T01:06:51.437Z,100613.28
2022-11-08T01:11:54.176Z,100611.06
2022-11-08T01:16:56.967Z,100599.31
2022-11-08T01:22:01.033Z,100600.56
2022-11-08T01:27:03.750Z,100602.25
2022-11-08T01:32:06.754Z,100607.72
2022-11-08T01:37:10.847Z,100611.56
2022-11-08T01:42:13.621Z,100605.84
2022-11-08T01:47:16.354Z,100598.69
2022-11-08T01:52:25.763Z,100608.72
2022-11-08T01:57:33.726Z,100608.78
2022-11-08T02:02:38.479Z,100607.19
2022-11-08T02:07:42.801Z,100600.13
2022-11-08T02:12:46.035Z,100594.41
2022-11-08T02:17:48.798Z,100591.47
2022-11-08T02:23:01.823Z,100592.06
2022-11-08T02:28:06.261Z,100586.72
2022-11-08T02:33:16.382Z,100585.97
2022-11-08T02:38:19.802Z,100591.84
2022-11-08T02:43:25.541Z,100584.47
2022-11-08T02:48:28.544Z,100587.53
2022-11-08T02:53:31.299Z,100583.25
2022-11-08T02:58:35.437Z,100586.44
2022-11-08T03:03:38.233Z,100590.72
2022-11-08T03:08:40.942Z,100579.75
2022-11-08T03:13:45.004Z,100586.13
2022-11-08T03:18:47.730Z,100590.41
2022-11-08T03:23:50.446Z,100586.78
2022-11-08T03:28:54.569Z,100568.19
2022-11-08T03:33:57.284Z,100580.19
2022-11-08T03:38:59.986Z,100584.31
2022-11-08T03:44:04.108Z,100574.88
2022-11-08T03:49:06.874Z,100578.09
2022-11-08T03:54:10.742Z,100585.81
2022-11-08T03:59:15.016Z,100577.66
2022-11-08T04:04:17.956Z,100589.28
2022-11-08T04:09:23.082Z,100583.13
2022-11-08T04:14:43.811Z,100585.72
2022-11-08T04:20:03.941Z,100576.13
2022-11-08T04:25:07.774Z,100579.22
2022-11-08T04:30:13.608Z,100573.50
2022-11-08T04:35:16.527Z,100566.41
2022-11-08T04:40:19.417Z,100568.88
2022-11-08T04:45:23.834Z,100571.28
2022-11-08T04:50:26.577Z,100574.41
2022-11-08T04:55:29.305Z,100561.72
2022-11-08T05:00:33.545Z,100570.66
2022-11-08T05:05:36.335Z,100575.53
2022-11-08T05:10:39.091Z,100574.03
2022-11-08T05:15:43.180Z,100562.25
2022-11-08T05:21:03.210Z,100565.41
2022-11-08T05:26:06.878Z,100571.59
2022-11-08T05:31:11.395Z,100561.66
2022-11-08T05:36:15.824Z,100565.88
2022-11-08T05:41:20.546Z,100566.19
2022-11-08T05:46:25.407Z,100560.16
2022-11-08T05:51:28.204Z,100563.63
2022-11-08T05:56:31.066Z,100562.00
2022-11-08T06:01:35.284Z,100553.41
2022-11-08T06:06:38.056Z,100546.25
2022-11-08T06:11:40.907Z,100544.03
2022-11-08T06:16:44.995Z,100552.03
2022-11-08T06:21:47.731Z,100541.22
2022-11-08T06:26:50.485Z,100548.94
2022-11-08T06:31:54.626Z,100540.72
2022-11-08T06:37:00.277Z,100533.72
2022-11-08T06:42:03.025Z,100534.00
2022-11-08T06:47:07.323Z,100538.91
2022-11-08T06:52:10.427Z,100546.34
2022-11-08T06:57:13.305Z,100540.91
2022-11-08T07:02:17.640Z,100542.97
2022-11-08T07:07:20.534Z,100538.38
2022-11-08T07:12:23.290Z,100536.69
2022-11-08T07:17:27.446Z,100541.75
2022-11-08T07:22:30.213Z,100542.28
2022-11-08T07:27:32.956Z,100537.94
2022-11-08T07:32:37.273Z,100533.47
2022-11-08T07:37:40.056Z,100535.19
2022-11-08T07:43:10.114Z,100527.03
2022-11-08T07:48:11.977Z,100526.34
2022-11-08T07:53:16.138Z,100522.91
2022-11-08T07:58:19.246Z,100520.91
2022-11-08T08:03:23.965Z,100525.28
2022-11-08T08:08:27.196Z,100521.75
2022-11-08T08:13:31.127Z,100518.28
2022-11-08T08:18:35.458Z,100514.31
2022-11-08T08:23:38.340Z,100516.13
2022-11-08T08:28:41.314Z,100518.13
2022-11-08T08:33:45.446Z,100523.88
2022-11-08T08:38:48.366Z,100520.84
2022-11-08T08:43:51.179Z,100523.19
2022-11-08T08:48:55.382Z,100513.31
2022-11-08T08:53:59.555Z,100502.28
2022-11-08T09:04:26.528Z,100486.31
2022-11-08T09:09:29.329Z,100486.78
2022-11-08T09:14:32.170Z,100482.06
2022-11-08T09:19:36.340Z,100471.22
2022-11-08T09:24:39.241Z,100468.88
2022-11-08T09:29:42.113Z,100461.66
2022-11-08T09:34:46.299Z,100454.53
2022-11-08T09:39:49.102Z,100460.50
2022-11-08T09:45:11.506Z,100466.97
2022-11-08T09:50:21.860Z,100458.78
2022-11-08T09:55:30.276Z,100458.28
2022-11-08T10:00:35.746Z,100454.94
2022-11-08T10:05:43.601Z,100449.34
2022-11-08T10:11:02.483Z,100438.50
2022-11-08T10:16:19.473Z,100432.03
2022-11-08T10:21:40.968Z,100423.25
2022-11-08T10:26:47.809Z,100407.38
2022-11-08T10:31:58.746Z,100389.69
2022-11-08T10:37:06.411Z,100385.69
2022-11-08T10:42:13.614Z,100371.88
2022-11-08T10:47:23.282Z,100358.19
2022-11-08T10:52:36.109Z,100345.59
2022-11-08T10:57:43.307Z,100343.72
2022-11-08T11:02:47.428Z,100331.53
2022-11-08T11:08:14.715Z,100336.06
2022-11-08T11:13:21.903Z,100331.09
2022-11-08T11:18:31.885Z,100329.09
2022-11-08T11:23:43.763Z,100328.06
2022-11-08T11:29:21.365Z,100320.16
2022-11-08T11:34:36.919Z,100320.31
2022-11-08T11:39:45.927Z,100314.28
2022-11-08T11:44:58.427Z,100310.75
2022-11-08T11:50:33.490Z,100308.47
2022-11-08T11:55:52.892Z,100293.47
2022-11-08T12:01:00.508Z,100273.63
2022-11-08T12:06:25.827Z,100270.72
2022-11-08T12:11:41.938Z,100263.59
2022-11-08T12:17:00.634Z,100264.72
2022-11-08T12:22:19.549Z,100251.69
2022-11-08T12:27:33.360Z,100248.06
2022-11-08T12:32:49.507Z,100251.25
2022-11-08T12:38:03.499Z,100247.78
2022-11-08T12:43:22.588Z,100239.34
2022-11-08T12:48:40.296Z,100233.94
2022-11-08T12:53:54.284Z,100238.09
2022-11-08T12:58:59.064Z,100226.31
2022-11-08T13:04:26.786Z,100223.88
2022-11-08T13:09:39.982Z,100238.81
2022-11-08T13:14:44.117Z,100248.38
2022-11-08T13:20:05.051Z,100228.13
2022-11-08T13:25:29.485Z,100220.50
2022-11-08T13:30:42.323Z,100216.34
2022-11-08T13:35:57.137Z,100222.78
2022-11-08T13:41:14.730Z,100207.50
2022-11-08T13:46:51.903Z,100207.75
2022-11-08T13:52:28.068Z,100217.78
2022-11-08T13:58:00.245Z,100204.53
2022-11-08T14:03:43.080Z,100202.78
2022-11-08T14:08:55.665Z,100203.41
2022-11-08T14:14:23.920Z,100204.06
2022-11-08T14:19:32.060Z,100199.53
2022-11-08T14:24:37.641Z,100198.69
2022-11-08T14:29:40.813Z,100184.88
2022-11-08T14:34:45.519Z,100197.22
2022-11-08T14:39:48.650Z,100198.34
2022-11-08T14:44:55.006Z,100184.88
2022-11-08T14:49:59.636Z,100182.22
2022-11-08T14:55:08.026Z,100189.34
2022-11-08T15:00:20.388Z,100191.19
2022-11-08T15:05:31.587Z,100184.28
2022-11-08T15:10:34.594Z,100186.69
2022-11-08T15:15:37.436Z,100165.00
2022-11-08T15:20:42.310Z,100153.38
2022-11-08T15:25:45.067Z,100148.47
2022-11-08T15:30:55.442Z,100156.81
2022-11-08T15:36:00.470Z,100158.53
2022-11-08T15:41:06.150Z,100151.56
2022-11-08T15:46:34.807Z,100148.75
2022-11-08T15:51:38.969Z,100162.09
2022-11-08T15:56:42.701Z,100154.75
2022-11-08T16:01:53.232Z,100153.22
2022-11-08T16:06:58.567Z,100148.28
2022-11-08T16:12:03.177Z,100154.25
2022-11-08T16:17:05.896Z,100150.13
2022-11-08T16:22:09.984Z,100146.91
2022-11-08T16:27:12.739Z,100138.06
2022-11-08T16:32:15.438Z,100125.28
2022-11-08T16:37:19.702Z,100116.72
2022-11-08T16:42:22.521Z,100115.28
2022-11-08T16:47:26.688Z,100141.00
2022-11-08T16:52:30.821Z,100141.97
2022-11-08T16:57:35.002Z,100149.88
2022-11-08T17:02:40.164Z,100136.53
2022-11-08T17:07:44.650Z,100150.75
2022-11-08T17:12:47.681Z,100154.47
2022-11-08T17:17:51.493Z,100149.75
2022-11-08T17:22:57.325Z,100164.59
2022-11-08T17:28:00.096Z,100158.03
2022-11-08T17:33:03.169Z,100167.03
2022-11-08T17:38:07.682Z,100163.41
2022-11-08T17:43:13.343Z,100175.25
2022-11-08T17:48:16.212Z,100164.91
2022-11-08T17:53:20.797Z,100164.13
2022-11-08T17:58:25.805Z,100168.63
2022-11-08T18:03:29.311Z,100168.91
2022-11-08T18:08:36.428Z,100180.44
2022-11-08T18:13:39.534Z,100176.25
2022-11-08T18:18:43.154Z,100175.38
2022-11-08T18:23:48.930Z,100175.16
2022-11-08T18:28:51.695Z,100175.63
2022-11-08T18:33:54.838Z,100172.38
2022-11-08T18:39:00.501Z,100178.47
2022-11-08T18:44:05.331Z,100172.00
2022-11-08T18:49:08.507Z,100171.63
2022-11-08T18:54:12.700Z,100172.66
2022-11-08T18:59:15.640Z,100173.25
2022-11-08T19:04:18.370Z,100167.06
2022-11-08T19:09:23.264Z,100165.25
2022-11-08T19:14:26.259Z,100179.06
2022-11-08T19:19:29.269Z,100190.88
2022-11-08T19:24:33.460Z,100174.94
2022-11-08T19:29:36.338Z,100183.31
2022-11-08T19:34:39.209Z,100176.66
2022-11-08T19:39:43.492Z,100178.28
2022-11-08T19:44:46.220Z,100176.13
2022-11-08T19:49:49.100Z,100177.72
2022-11-08T19:54:53.351Z,100174.03
2022-11-08T19:59:57.263Z,100177.50
2022-11-08T20:05:06.046Z,100180.59
2022-11-08T20:10:13.778Z,100182.72
2022-11-08T20:15:16.741Z,100184.38
2022-11-08T20:20:22.042Z,100185.78
2022-11-08T20:25:52.527Z,100200.66
2022-11-08T20:31:22.777Z,100193.91
2022-11-08T20:36:54.610Z,100194.56
2022-11-08T20:41:59.143Z,100194.06
2022-11-08T20:47:11.612Z,100197.84
2022-11-08T20:52:16.875Z,100207.38
2022-11-08T20:57:21.304Z,100199.94
2022-11-08T21:02:28.371Z,100187.50
2022-11-08T21:08:03.816Z,100188.31
2022-11-08T21:12:57.926Z,100197.09
2022-11-08T21:18:00.839Z,100197.22
2022-11-08T21:23:03.906Z,100199.78
2022-11-08T21:28:10.081Z,100195.56
2022-11-08T21:33:13.248Z,100192.13
2022-11-08T21:38:16.256Z,100199.81
2022-11-08T21:43:21.871Z,100185.78
2022-11-08T21:48:25.043Z,100199.44
2022-11-08T21:53:28.056Z,100199.25
2022-11-08T21:58:32.493Z,100196.34
2022-11-08T22:03:35.894Z,100191.28
2022-11-08T22:08:38.721Z,100199.91
2022-11-08T22:13:42.810Z,100195.47
2022-11-08T22:24:10.225Z,100198.03
2022-11-08T22:29:15.171Z,100203.41
2022-11-08T22:34:18.109Z,100195.59
2022-11-08T22:39:23.154Z,100204.44
2022-11-08T22:44:27.269Z,100204.19
2022-11-08T22:49:30.433Z,100208.84
2022-11-08T22:54:33.216Z,100199.94
2022-11-08T22:59:37.308Z,100187.91
2022-11-08T23:04:40.160Z,100187.28
2022-11-08T23:09:42.886Z,100183.25
2022-11-08T23:15:04.280Z,100189.16
2022-11-08T23:20:24.971Z,100193.63
2022-11-08T23:25:27.799Z,100176.44
2022-11-08T23:30:49.380Z,100205.47
2022-11-08T23:36:15.740Z,100211.25
2022-11-08T23:41:36.487Z,100211.53
2022-11-08T23:46:40.759Z,100199.81
2022-11-08T23:51:43.518Z,100209.44
2022-11-08T23:56:47.010Z,100204.38
